Red Cliffs, Australia
Current Conditions -  °F | °C
As of 2:00 PM on Saturday 20 Dec 2014 (Local Time) from YMIA Reporting Station
Clear Clear  
Wind Chill: 82°   Ceiling: Unl
Heat Index: 82°   Visibility: 6mi
Dew Point: 39°   Wind: 5mph
Humidity: 21%   Direction: 20°NNE
Pressure: 30"   Gusts: NA
Location:  34.31°S, 142.19°E
Report Text: YMIA 200300Z AUTO 02004KT 290V080 9999 // NCD 28/04 Q1016
Loading
Personal Weather Stations






























Interactive Weather Map New forecast layout! Learn more

10-Day Weather Forecast

Advertisements
Track Severe Weather on mobile